Time;durP1;ratioP1;P1;durP2;ratioP2;P2;SDS_P1;SDS_P2;PMS_P1;PMS_P2;Temp;Humidity;BMP_temperature;BMP_pressure;BME280_temperature;BME280_humidity;BME280_pressure;Samples;Min_cycle;Max_cycle;Signal;HPM_P1;HPM_P2
2020/12/10 00:00:18;;;;;;;21.20;15.33;;;;;;;5.36;79.67;95578.72;5075449;28;20197;-62
2020/12/10 00:02:44;;;;;;;23.20;16.20;;;;;;;5.33;79.76;95573.94;5075768;28;20663;-62
2020/12/10 00:05:11;;;;;;;21.97;15.07;;;;;;;5.29;80.28;95574.59;5075743;28;20213;-59
2020/12/10 00:07:38;;;;;;;22.30;15.20;;;;;;;5.29;81.12;95567.53;5075222;28;20501;-59
2020/12/10 00:10:08;;;;;;;24.47;16.50;;;;;;;5.33;81.53;95570.56;5074505;28;20494;-59
2020/12/10 00:12:38;;;;;;;20.87;15.03;;;;;;;5.32;81.01;95569.75;5075668;28;20418;-62
2020/12/10 00:15:04;;;;;;;21.03;15.10;;;;;;;5.38;80.95;95568.88;5076399;28;20405;-62
2020/12/10 00:17:29;;;;;;;23.63;15.93;;;;;;;5.34;80.48;95561.72;5075487;28;20465;-62
2020/12/10 00:19:56;;;;;;;21.60;15.47;;;;;;;5.46;80.95;95563.41;5075629;28;20206;-60
2020/12/10 00:22:22;;;;;;;23.57;14.73;;;;;;;5.37;80.38;95562.09;5072690;28;20168;-59
2020/12/10 00:24:48;;;;;;;21.67;15.37;;;;;;;5.50;79.95;95564.59;5076048;28;20411;-58
2020/12/10 00:27:22;;;;;;;20.20;15.50;;;;;;;5.49;80.60;95557.00;5074971;28;20426;-62
2020/12/10 00:29:47;;;;;;;22.60;14.83;;;;;;;5.42;80.13;95558.84;5075999;28;20842;-59
2020/12/10 00:32:13;;;;;;;21.90;14.33;;;;;;;5.41;80.65;95554.66;5075575;28;20469;-59
2020/12/10 00:34:42;;;;;;;23.50;15.83;;;;;;;5.36;80.56;95547.47;5075619;28;20170;-62
2020/12/10 00:37:09;;;;;;;22.03;15.33;;;;;;;5.44;79.85;95552.41;5075497;28;20477;-62
2020/12/10 00:39:35;;;;;;;19.93;14.03;;;;;;;5.40;79.76;95548.63;5075211;28;20433;-62
2020/12/10 00:42:01;;;;;;;19.50;14.97;;;;;;;5.39;79.57;95541.84;5074863;28;20466;-62
2020/12/10 00:44:27;;;;;;;24.10;15.20;;;;;;;5.35;80.45;95539.88;5075856;28;20497;-62
2020/12/10 00:46:52;;;;;;;26.57;15.97;;;;;;;5.40;79.52;95534.84;5074674;28;20519;-59
2020/12/10 00:49:20;;;;;;;23.70;15.23;;;;;;;5.51;79.32;95528.94;5075284;28;20198;-59
2020/12/10 00:51:46;;;;;;;22.80;15.10;;;;;;;5.48;79.46;95532.75;5075570;28;20531;-58
2020/12/10 00:54:12;;;;;;;22.00;14.87;;;;;;;5.57;79.41;95525.44;5075732;28;20464;-58
2020/12/10 00:56:38;;;;;;;19.37;14.83;;;;;;;5.40;79.45;95521.81;5075004;28;20452;-62
2020/12/10 00:59:03;;;;;;;23.20;14.73;;;;;;;5.26;80.53;95515.91;5075039;28;20204;-59
2020/12/10 01:01:28;;;;;;;19.60;13.80;;;;;;;5.17;79.51;95518.00;5074424;28;20181;-59
2020/12/10 01:03:54;;;;;;;19.10;13.50;;;;;;;5.18;79.73;95518.78;5074083;28;20190;-59
2020/12/10 01:06:19;;;;;;;19.83;13.20;;;;;;;5.20;79.39;95520.16;5072919;28;20177;-62
2020/12/10 01:08:45;;;;;;;20.87;14.20;;;;;;;5.25;79.17;95519.53;5075216;28;20177;-59
2020/12/10 01:11:10;;;;;;;18.20;12.93;;;;;;;5.31;79.58;95518.66;5075222;28;20201;-62
2020/12/10 01:13:35;;;;;;;20.30;13.80;;;;;;;5.33;78.62;95519.25;5075356;28;20174;-62
2020/12/10 01:16:01;;;;;;;21.63;13.47;;;;;;;5.38;79.50;95519.41;5074673;28;20230;-62
2020/12/10 01:18:27;;;;;;;17.73;12.43;;;;;;;5.28;78.04;95526.91;5074465;28;20220;-62
2020/12/10 01:20:52;;;;;;;21.30;13.97;;;;;;;5.22;79.33;95525.94;5073975;28;20697;-62
2020/12/10 01:23:18;;;;;;;16.90;12.73;;;;;;;5.32;79.33;95529.88;5074910;28;20519;-59
2020/12/10 01:25:43;;;;;;;18.60;12.30;;;;;;;5.31;78.38;95523.88;5074723;28;20179;-62
2020/12/10 01:28:09;;;;;;;20.70;14.27;;;;;;;5.29;77.76;95525.09;5074263;28;20199;-59
2020/12/10 01:30:34;;;;;;;17.20;11.90;;;;;;;5.10;78.18;95522.44;5073823;28;20193;-59
2020/12/10 01:33:00;;;;;;;19.53;13.70;;;;;;;5.00;79.60;95518.72;5074727;28;20534;-62
2020/12/10 01:35:25;;;;;;;18.17;12.50;;;;;;;5.06;78.17;95520.47;5074142;28;20611;-62
2020/12/10 01:37:50;;;;;;;22.17;14.40;;;;;;;5.09;78.39;95520.84;5074121;28;20666;-59
2020/12/10 01:40:16;;;;;;;19.60;13.20;;;;;;;5.18;78.11;95519.56;5074429;28;20197;-59
2020/12/10 01:42:41;;;;;;;16.93;13.20;;;;;;;5.11;78.39;95511.03;5074487;28;20257;-59
2020/12/10 01:45:07;;;;;;;18.70;13.30;;;;;;;5.17;78.17;95507.56;5072927;28;20177;-61
2020/12/10 01:47:33;;;;;;;18.00;13.03;;;;;;;5.21;77.51;95502.75;5073550;28;20167;-59
2020/12/10 01:49:59;;;;;;;17.60;12.83;;;;;;;5.08;76.92;95506.25;5073853;28;20490;-59
2020/12/10 01:52:24;;;;;;;19.93;13.63;;;;;;;5.06;78.54;95499.66;5073692;28;20972;-58
2020/12/10 01:54:49;;;;;;;17.90;13.17;;;;;;;5.01;77.47;95502.91;5074247;28;20182;-62
2020/12/10 01:57:15;;;;;;;21.10;14.93;;;;;;;5.08;77.62;95493.22;5073629;28;20201;-62
2020/12/10 01:59:41;;;;;;;20.50;13.67;;;;;;;5.09;78.34;95491.44;5074244;28;20184;-62
2020/12/10 02:02:07;;;;;;;21.93;13.90;;;;;;;5.14;77.80;95497.59;5072799;28;20522;-62
2020/12/10 02:04:34;;;;;;;20.47;13.10;;;;;;;5.09;77.97;95488.84;5074134;28;20177;-62
2020/12/10 02:07:04;;;;;;;21.23;15.53;;;;;;;5.10;77.99;95486.00;5073326;28;20426;-59
2020/12/10 02:09:30;;;;;;;18.97;13.77;;;;;;;5.14;78.21;95486.38;5073886;28;20503;-59
2020/12/10 02:11:56;;;;;;;23.77;15.40;;;;;;;5.24;78.30;95487.47;5074190;28;20484;-62
2020/12/10 02:14:22;;;;;;;18.23;13.80;;;;;;;5.31;78.06;95481.44;5073557;28;20861;-59
2020/12/10 02:16:56;;;;;;;22.07;15.03;;;;;;;5.29;78.88;95478.25;5073110;28;20287;-59
2020/12/10 02:19:22;;;;;;;18.47;13.03;;;;;;;5.28;78.29;95481.84;5071895;28;20538;-59
2020/12/10 02:21:47;;;;;;;19.83;14.00;;;;;;;5.33;78.57;95482.00;5073334;28;20518;-58
2020/12/10 02:24:18;;;;;;;17.53;13.17;;;;;;;5.38;77.41;95474.34;5074062;28;20260;-62
2020/12/10 02:26:46;;;;;;;19.27;14.13;;;;;;;5.31;78.43;95461.38;5072253;28;20173;-59
2020/12/10 02:29:11;;;;;;;18.53;14.20;;;;;;;5.29;78.21;95460.78;5073629;28;20454;-62
2020/12/10 02:31:37;;;;;;;17.77;13.53;;;;;;;5.31;78.39;95460.59;5073696;28;20874;-58
2020/12/10 02:34:07;;;;;;;21.83;15.00;;;;;;;5.34;78.61;95460.16;5073544;28;20809;-59
2020/12/10 02:36:34;;;;;;;22.00;14.50;;;;;;;5.39;77.67;95460.31;5073031;28;20239;-59
2020/12/10 02:39:01;;;;;;;22.07;14.90;;;;;;;5.37;78.67;95460.53;5073264;28;20448;-62
2020/12/10 02:41:27;;;;;;;22.70;14.10;;;;;;;5.39;78.62;95458.50;5073001;28;20913;-62
2020/12/10 02:43:52;;;;;;;21.40;14.20;;;;;;;5.41;78.80;95451.28;5072319;28;20467;-62
2020/12/10 02:46:18;;;;;;;21.87;15.87;;;;;;;5.34;78.78;95452.34;5072941;28;20512;-60
2020/12/10 02:48:44;;;;;;;22.30;15.43;;;;;;;5.35;78.50;95446.91;5073098;28;20171;-59
2020/12/10 02:51:09;;;;;;;24.70;14.17;;;;;;;5.35;78.82;95440.91;5072719;28;20184;-62
2020/12/10 02:53:36;;;;;;;22.17;15.30;;;;;;;5.25;79.43;95441.41;5071868;28;20438;-58
2020/12/10 02:56:13;;;;;;;22.40;15.10;;;;;;;5.28;79.86;95434.97;5072791;28;20670;-59
2020/12/10 02:58:39;;;;;;;23.00;15.43;;;;;;;5.34;79.49;95423.69;5072815;28;20423;-58
2020/12/10 03:01:05;;;;;;;23.60;16.20;;;;;;;5.34;79.44;95434.91;5072732;28;20478;-62
2020/12/10 03:03:30;;;;;;;21.80;15.13;;;;;;;5.27;79.81;95422.97;5072132;28;20421;-59
2020/12/10 03:05:57;;;;;;;21.83;13.93;;;;;;;5.29;80.18;95420.97;5072797;28;20428;-58
2020/12/10 03:08:22;;;;;;;22.53;16.57;;;;;;;5.19;80.06;95422.25;5072658;28;20429;-62
2020/12/10 03:10:48;;;;;;;24.07;16.67;;;;;;;5.20;80.26;95417.81;5073150;28;20979;-59
2020/12/10 03:13:17;;;;;;;23.47;16.57;;;;;;;5.18;79.34;95414.66;5073259;28;20209;-59
2020/12/10 03:15:43;;;;;;;26.70;17.10;;;;;;;5.18;79.35;95423.25;5072583;28;20538;-62
2020/12/10 03:18:08;;;;;;;24.93;16.90;;;;;;;5.14;79.35;95416.91;5072584;28;20424;-59
2020/12/10 03:20:34;;;;;;;22.43;15.73;;;;;;;5.10;80.49;95409.72;5072854;28;20194;-58
2020/12/10 03:22:59;;;;;;;24.53;16.90;;;;;;;5.03;80.93;95401.97;5073244;28;20170;-62
2020/12/10 03:25:25;;;;;;;28.47;18.23;;;;;;;5.00;80.93;95404.22;5071130;28;20185;-62
2020/12/10 03:27:52;;;;;;;24.83;16.30;;;;;;;5.11;80.81;95399.09;5071966;28;20192;-61
2020/12/10 03:30:17;;;;;;;24.97;16.53;;;;;;;5.06;80.93;95401.53;5072453;28;20441;-58
2020/12/10 03:32:43;;;;;;;28.20;17.07;;;;;;;5.05;80.54;95393.94;5073038;28;20419;-58
2020/12/10 03:35:08;;;;;;;26.23;17.20;;;;;;;5.13;80.88;95388.44;5073188;28;20624;-62
2020/12/10 03:37:34;;;;;;;27.17;16.60;;;;;;;5.09;80.04;95388.09;5072640;28;20286;-62
2020/12/10 03:40:00;;;;;;;28.20;16.53;;;;;;;5.11;80.53;95385.25;5072705;28;20198;-62
2020/12/10 03:42:26;;;;;;;30.57;17.93;;;;;;;5.13;80.88;95381.44;5072156;28;20179;-62
2020/12/10 03:44:51;;;;;;;27.87;18.17;;;;;;;5.00;80.97;95380.81;5072777;28;20423;-62
2020/12/10 03:47:16;;;;;;;26.23;16.27;;;;;;;5.01;80.80;95374.56;5072115;28;20182;-58
2020/12/10 03:49:42;;;;;;;31.60;17.17;;;;;;;5.05;81.04;95370.53;5072689;28;20273;-62
2020/12/10 03:52:07;;;;;;;31.10;18.23;;;;;;;5.04;80.96;95366.31;5072097;28;20186;-62
2020/12/10 03:54:34;;;;;;;26.90;16.77;;;;;;;5.06;80.93;95364.31;5071365;28;20184;-62
2020/12/10 03:57:01;;;;;;;26.83;16.80;;;;;;;5.00;80.80;95365.94;5064039;28;20206;-58
2020/12/10 03:59:27;;;;;;;25.20;16.43;;;;;;;5.01;81.04;95366.75;5072402;28;20467;-62
2020/12/10 04:01:52;;;;;;;30.10;17.77;;;;;;;5.02;80.74;95365.75;5072793;28;20447;-58
2020/12/10 04:04:17;;;;;;;30.80;17.30;;;;;;;5.07;81.65;95368.50;5072826;28;20167;-62
2020/12/10 04:06:43;;;;;;;31.47;17.67;;;;;;;5.07;81.15;95366.69;5072464;28;20158;-59
2020/12/10 04:09:11;;;;;;;31.50;17.90;;;;;;;5.10;81.01;95368.88;5074932;28;20221;-62
2020/12/10 04:11:37;;;;;;;38.03;19.87;;;;;;;5.11;81.25;95367.84;5075992;28;20207;-62
2020/12/10 04:14:02;;;;;;;33.87;18.43;;;;;;;5.16;80.47;95367.22;5076084;28;20442;-59
2020/12/10 04:16:28;;;;;;;28.73;16.90;;;;;;;5.12;80.95;95363.44;5074878;28;20718;-59
2020/12/10 04:18:53;;;;;;;32.77;18.83;;;;;;;5.11;81.80;95364.44;5076261;28;20195;-59
2020/12/10 04:21:19;;;;;;;38.00;19.70;;;;;;;5.05;80.90;95357.50;5075825;28;20181;-62
2020/12/10 04:23:44;;;;;;;30.80;18.30;;;;;;;5.09;81.30;95359.47;5076072;28;20234;-58
2020/12/10 04:26:13;;;;;;;33.40;18.53;;;;;;;5.07;81.16;95345.84;5075466;28;20180;-60
2020/12/10 04:28:38;;;;;;;31.50;18.77;;;;;;;5.07;80.52;95347.69;5061645;28;20178;-62
2020/12/10 04:31:04;;;;;;;28.80;18.20;;;;;;;5.06;80.78;95351.28;5071797;28;20443;-62
2020/12/10 04:33:30;;;;;;;29.33;17.40;;;;;;;5.04;81.29;95350.69;5076110;28;20658;-58
2020/12/10 04:35:55;;;;;;;28.70;17.77;;;;;;;4.97;82.27;95355.19;5075992;28;20440;-59
2020/12/10 04:38:21;;;;;;;30.30;17.73;;;;;;;4.99;82.52;95346.16;5075242;28;20199;-59
2020/12/10 04:40:47;;;;;;;28.33;16.03;;;;;;;5.14;81.21;95353.63;5075407;28;20208;-62
2020/12/10 04:43:13;;;;;;;27.00;16.83;;;;;;;5.16;81.72;95349.00;5074615;28;20174;-62
2020/12/10 04:45:39;;;;;;;25.43;17.13;;;;;;;5.07;81.28;95350.28;5073839;28;20529;-62
2020/12/10 04:48:05;;;;;;;27.97;16.33;;;;;;;5.08;81.62;95351.88;5075287;28;20417;-62
2020/12/10 04:50:34;;;;;;;33.80;17.87;;;;;;;5.09;81.36;95349.03;5073965;28;20202;-59
2020/12/10 04:53:00;;;;;;;29.13;16.73;;;;;;;5.15;81.26;95332.56;5075419;28;20909;-58
2020/12/10 04:55:26;;;;;;;28.10;16.43;;;;;;;5.09;81.60;95338.63;5075576;28;20406;-62
2020/12/10 04:57:53;;;;;;;31.87;16.40;;;;;;;5.03;81.45;95336.13;5074503;28;20208;-62
2020/12/10 05:00:20;;;;;;;27.07;16.47;;;;;;;4.99;81.44;95337.53;5074876;28;20438;-59
2020/12/10 05:02:47;;;;;;;25.27;15.80;;;;;;;5.01;81.36;95330.31;5074150;28;20420;-59
2020/12/10 05:05:26;;;;;;;27.37;17.33;;;;;;;5.02;81.73;95335.31;5074786;28;20442;-62
2020/12/10 05:07:53;;;;;;;31.60;17.27;;;;;;;4.97;82.19;95334.38;5074939;28;20402;-62
2020/12/10 05:10:18;;;;;;;30.37;16.80;;;;;;;5.05;81.59;95328.88;5074621;28;20447;-62
2020/12/10 05:12:45;;;;;;;31.27;17.80;;;;;;;5.05;81.93;95329.66;5074596;28;20411;-62
2020/12/10 05:15:11;;;;;;;28.90;17.37;;;;;;;4.97;81.66;95340.38;5074848;28;20198;-58
2020/12/10 05:17:36;;;;;;;27.47;17.03;;;;;;;4.92;81.86;95326.41;5074696;28;20450;-59
2020/12/10 05:20:05;;;;;;;32.97;18.07;;;;;;;4.92;82.04;95334.22;5073612;28;20527;-62
2020/12/10 05:22:31;;;;;;;33.50;18.90;;;;;;;5.00;82.09;95326.16;5075087;28;20168;-58
2020/12/10 05:25:01;;;;;;;29.00;16.47;;;;;;;4.92;82.12;95337.63;5072743;28;20422;-59
2020/12/10 05:27:26;;;;;;;31.40;18.20;;;;;;;4.94;82.50;95325.19;5074332;28;20190;-59
2020/12/10 05:29:52;;;;;;;27.20;17.73;;;;;;;4.94;82.59;95327.00;5074157;28;20442;-58
2020/12/10 05:32:40;;;;;;;32.73;18.90;;;;;;;4.96;82.64;95324.97;5074642;28;20201;-58
2020/12/10 05:35:20;;;;;;;31.67;18.43;;;;;;;5.05;82.14;95315.88;5074684;28;20225;-59
2020/12/10 05:37:46;;;;;;;28.27;17.87;;;;;;;5.12;81.37;95319.19;5074179;28;20862;-59
2020/12/10 05:40:12;;;;;;;28.80;19.10;;;;;;;4.93;82.20;95318.38;5074115;28;20429;-62
2020/12/10 05:42:43;;;;;;;29.30;17.50;;;;;;;4.98;82.53;95315.94;5074728;28;20406;-59
2020/12/10 05:45:11;;;;;;;29.70;17.60;;;;;;;4.95;81.91;95326.78;5073655;28;20423;-62
2020/12/10 05:47:44;;;;;;;34.63;20.70;;;;;;;4.95;82.54;95310.34;5073906;28;20411;-59
2020/12/10 05:50:11;;;;;;;33.67;18.53;;;;;;;4.93;82.30;95318.38;5073861;28;20808;-58
2020/12/10 05:53:02;;;;;;;36.87;19.83;;;;;;;4.98;81.69;95320.34;5074555;28;20424;-62
2020/12/10 05:55:28;;;;;;;33.60;19.63;;;;;;;4.96;81.72;95322.38;5072451;28;20425;-59
2020/12/10 05:57:54;;;;;;;30.80;17.63;;;;;;;4.93;82.33;95320.19;5073695;28;20459;-59
2020/12/10 06:00:19;;;;;;;35.40;20.20;;;;;;;4.92;82.17;95322.00;5073657;28;20193;-62
2020/12/10 06:02:46;;;;;;;36.70;20.30;;;;;;;5.01;82.34;95314.72;5073996;28;21041;-62
2020/12/10 06:05:14;;;;;;;33.60;18.50;;;;;;;5.00;82.02;95323.53;5073377;28;20273;-62
2020/12/10 06:07:39;;;;;;;29.27;17.47;;;;;;;4.93;81.84;95325.38;5073128;28;20428;-59
2020/12/10 06:10:04;;;;;;;31.10;19.67;;;;;;;4.99;81.79;95324.53;5073940;28;20781;-59
2020/12/10 06:12:30;;;;;;;31.70;17.27;;;;;;;5.06;81.17;95317.44;5073704;28;20209;-59
2020/12/10 06:15:00;;;;;;;30.50;17.50;;;;;;;5.09;81.62;95315.19;5073324;28;20185;-59
2020/12/10 06:17:26;;;;;;;30.70;18.83;;;;;;;5.06;81.42;95312.25;5072359;28;20201;-62
2020/12/10 06:19:51;;;;;;;35.70;20.50;;;;;;;4.95;82.20;95320.75;5072212;28;20463;-59
2020/12/10 06:22:24;;;;;;;40.03;20.67;;;;;;;5.01;81.65;95319.91;5073182;28;20945;-62
2020/12/10 06:24:50;;;;;;;33.90;19.60;;;;;;;5.02;81.81;95311.06;5073258;28;20179;-59
2020/12/10 06:27:25;;;;;;;38.30;21.90;;;;;;;5.08;81.32;95315.44;5073337;28;20424;-58
2020/12/10 06:30:12;;;;;;;38.70;21.70;;;;;;;5.11;81.73;95313.19;5072718;28;20201;-62
2020/12/10 06:32:42;;;;;;;37.93;21.53;;;;;;;5.11;81.52;95302.78;5072369;28;20424;-60
2020/12/10 06:35:24;;;;;;;34.73;19.67;;;;;;;5.09;81.61;95302.19;5073801;28;20485;-59
2020/12/10 06:37:49;;;;;;;32.60;19.40;;;;;;;4.97;81.17;95300.53;5052010;28;20450;-59
2020/12/10 06:40:29;;;;;;;35.20;21.10;;;;;;;5.02;81.95;95300.66;5062757;28;20449;-62
2020/12/10 06:42:56;;;;;;;36.30;21.20;;;;;;;5.09;82.06;95302.19;5073673;28;20170;-62
2020/12/10 06:45:25;;;;;;;38.50;20.37;;;;;;;5.10;81.82;95303.78;5072936;28;20424;-59
2020/12/10 06:47:51;;;;;;;34.63;19.70;;;;;;;5.09;81.78;95312.59;5072534;28;20421;-63
2020/12/10 06:50:21;;;;;;;39.77;22.77;;;;;;;5.15;81.55;95309.13;5073129;28;20498;-59
2020/12/10 06:53:29;;;;;;;37.10;19.87;;;;;;;5.09;80.82;95309.22;5073020;28;20835;-59
2020/12/10 06:55:55;;;;;;;32.07;19.30;;;;;;;5.03;81.63;95307.47;5072471;28;20444;-58
2020/12/10 06:58:20;;;;;;;33.90;19.60;;;;;;;5.03;81.68;95312.69;5071257;28;20462;-62
2020/12/10 07:00:54;;;;;;;36.63;19.90;;;;;;;5.06;80.93;95317.44;5072597;28;20205;-62
2020/12/10 07:03:27;;;;;;;32.00;19.87;;;;;;;5.11;81.27;95323.59;5073496;28;20178;-62
2020/12/10 07:05:53;;;;;;;40.50;20.70;;;;;;;5.13;80.74;95323.38;5072352;28;20886;-62
2020/12/10 07:08:20;;;;;;;28.03;17.50;;;;;;;5.16;81.34;95328.16;5070918;28;20946;-62
2020/12/10 07:10:49;;;;;;;30.37;18.97;;;;;;;5.00;80.93;95328.75;5072451;28;20451;-59
2020/12/10 07:13:17;;;;;;;35.83;21.80;;;;;;;4.96;81.39;95330.97;5072982;28;20424;-62
2020/12/10 07:15:49;;;;;;;31.00;18.47;;;;;;;4.98;81.71;95330.75;5072452;28;20450;-62
2020/12/10 07:18:15;;;;;;;36.73;19.97;;;;;;;5.04;81.25;95325.47;5072672;28;20417;-60
2020/12/10 07:20:41;;;;;;;34.30;18.90;;;;;;;4.95;81.35;95331.19;5073044;28;20428;-62
2020/12/10 07:23:06;;;;;;;34.40;19.97;;;;;;;4.95;81.95;95331.19;5071870;28;20177;-62
2020/12/10 07:25:32;;;;;;;30.57;19.50;;;;;;;4.98;81.81;95328.16;5072370;28;20635;-62
2020/12/10 07:27:58;;;;;;;33.10;18.90;;;;;;;5.03;81.72;95325.69;5072205;28;20179;-62
2020/12/10 07:30:24;;;;;;;32.67;19.00;;;;;;;4.97;82.09;95326.56;5072727;28;20689;-58
2020/12/10 07:33:04;;;;;;;34.00;21.40;;;;;;;5.00;81.88;95328.75;5072411;28;20830;-62
2020/12/10 07:35:31;;;;;;;29.67;18.87;;;;;;;5.03;81.66;95336.13;5072147;28;20486;-59
2020/12/10 07:38:06;;;;;;;32.60;19.23;;;;;;;5.03;81.05;95334.31;5072315;28;20460;-58
2020/12/10 07:40:33;;;;;;;34.27;21.80;;;;;;;5.05;82.08;95334.88;5071300;28;20442;-60
2020/12/10 07:43:02;;;;;;;32.57;19.10;;;;;;;5.09;81.28;95332.66;5073529;28;20880;-62
2020/12/10 07:45:28;;;;;;;34.33;19.90;;;;;;;5.14;80.95;95328.38;5076177;28;20569;-59
2020/12/10 07:47:57;;;;;;;30.40;17.67;;;;;;;5.15;80.90;95335.16;5075984;28;20837;-62
2020/12/10 07:50:27;;;;;;;31.03;19.97;;;;;;;5.16;81.16;95325.56;5076672;28;20198;-63
2020/12/10 07:52:54;;;;;;;30.60;19.77;;;;;;;5.09;81.20;95322.25;5076198;28;20411;-62
2020/12/10 07:55:25;;;;;;;29.77;18.93;;;;;;;5.02;81.25;95327.50;5074923;28;20506;-62
2020/12/10 07:58:11;;;;;;;36.10;20.17;;;;;;;5.11;80.98;95323.59;5075661;28;20506;-59
2020/12/10 08:00:42;;;;;;;28.50;18.90;;;;;;;5.02;81.68;95332.72;5059755;28;20803;-62
2020/12/10 08:03:26;;;;;;;32.27;18.80;;;;;;;5.13;80.90;95324.19;5076427;28;20412;-58
2020/12/10 08:06:04;;;;;;;27.23;17.50;;;;;;;5.18;80.99;95326.16;5076321;28;20932;-62
2020/12/10 08:08:46;;;;;;;29.63;18.87;;;;;;;5.19;81.11;95323.31;5074404;28;20411;-62
2020/12/10 08:11:21;;;;;;;29.97;17.70;;;;;;;5.27;80.55;95322.22;5075902;28;20930;-59
2020/12/10 08:13:54;;;;;;;28.30;19.20;;;;;;;5.31;79.92;95325.97;5075128;28;20416;-59
2020/12/10 08:16:20;;;;;;;28.17;18.70;;;;;;;5.18;81.27;95326.16;5075323;28;20464;-59
2020/12/10 08:18:45;;;;;;;26.83;17.33;;;;;;;5.26;80.93;95323.22;5075890;28;20419;-59
2020/12/10 08:21:11;;;;;;;31.97;18.40;;;;;;;5.27;81.17;95331.84;5076209;28;20237;-59
2020/12/10 08:23:46;;;;;;;28.63;17.63;;;;;;;5.25;80.13;95324.25;5075873;28;20221;-57
2020/12/10 08:26:14;;;;;;;31.83;16.83;;;;;;;5.19;81.14;95314.69;5074391;28;20181;-59
2020/12/10 08:28:51;;;;;;;26.80;16.33;;;;;;;5.24;80.92;95313.03;5094877;28;20460;-59
2020/12/10 08:31:24;;;;;;;29.03;18.17;;;;;;;5.32;80.28;95321.56;5074584;28;20835;-58
2020/12/10 08:33:49;;;;;;;26.27;16.83;;;;;;;5.33;79.91;95310.94;5075662;28;20928;-57
2020/12/10 08:36:34;;;;;;;26.90;18.00;;;;;;;5.35;80.22;95321.91;5075758;28;20448;-57
2020/12/10 08:39:04;;;;;;;22.60;15.63;;;;;;;5.41;80.32;95318.44;5055831;28;20207;-57
2020/12/10 08:41:32;;;;;;;19.77;12.03;;;;;;;5.33;79.05;95318.72;5075200;28;20416;-57
2020/12/10 08:44:04;;;;;;;16.77;10.90;;;;;;;5.35;79.39;95318.50;5075393;28;20419;-59
2020/12/10 08:46:31;;;;;;;19.30;13.80;;;;;;;5.40;79.02;95324.66;5075434;28;20400;-59
2020/12/10 08:49:13;;;;;;;19.40;14.07;;;;;;;5.34;78.04;95328.16;5075293;28;20964;-57
2020/12/10 08:51:40;;;;;;;23.40;15.00;;;;;;;5.19;78.62;95327.72;5075525;28;20996;-58
2020/12/10 08:54:05;;;;;;;22.43;14.40;;;;;;;5.22;78.85;95316.84;5075548;28;20431;-59
2020/12/10 08:56:38;;;;;;;25.30;16.90;;;;;;;5.27;79.23;95324.84;5073738;28;20969;-59
2020/12/10 08:59:04;;;;;;;24.60;16.20;;;;;;;5.13;79.45;95328.59;5070484;28;20228;-59
2020/12/10 09:01:30;;;;;;;25.60;16.33;;;;;;;5.22;78.85;95327.28;5071925;28;20411;-59
2020/12/10 09:03:56;;;;;;;23.40;15.43;;;;;;;5.27;78.41;95330.03;5071514;28;20443;-57
2020/12/10 09:06:23;;;;;;;24.30;15.10;;;;;;;5.27;78.71;95331.84;5071307;28;20576;-59
2020/12/10 09:08:51;;;;;;;21.67;15.47;;;;;;;5.32;78.24;95321.56;5070268;28;20189;-59
2020/12/10 09:11:17;;;;;;;14.43;10.20;;;;;;;5.32;77.76;95327.56;5071246;28;20418;-58
2020/12/10 09:13:42;;;;;;;17.50;12.90;;;;;;;5.37;77.42;95332.91;5073823;28;20420;-57
2020/12/10 09:16:09;;;;;;;18.77;12.97;;;;;;;5.38;77.41;95323.31;5075424;28;20200;-58
2020/12/10 09:18:34;;;;;;;18.50;11.97;;;;;;;5.25;77.41;95321.66;5073204;28;20177;-58
2020/12/10 09:21:00;;;;;;;19.83;12.90;;;;;;;5.34;77.75;95316.94;5081392;28;20475;-60
2020/12/10 09:23:25;;;;;;;19.77;12.40;;;;;;;5.33;77.53;95323.16;5074826;28;20182;-58
2020/12/10 09:25:50;;;;;;;15.53;11.37;;;;;;;5.35;78.31;95316.72;5075026;28;20239;-60
2020/12/10 09:28:16;;;;;;;16.10;11.30;;;;;;;5.42;77.53;95314.81;5074478;28;20213;-60
2020/12/10 09:30:43;;;;;;;13.93;10.20;;;;;;;5.47;77.39;95319.38;5074839;28;20196;-57
2020/12/10 09:33:09;;;;;;;13.37;10.47;;;;;;;5.32;77.81;95324.16;5074794;28;20496;-58
2020/12/10 09:35:35;;;;;;;11.63;8.40;;;;;;;5.28;77.61;95317.81;5074580;28;20454;-57
2020/12/10 09:38:01;;;;;;;9.80;8.00;;;;;;;5.12;74.71;95311.38;5074017;28;20468;-58
2020/12/10 09:40:27;;;;;;;11.73;8.60;;;;;;;5.12;74.56;95312.19;5074275;28;20201;-58
2020/12/10 09:42:52;;;;;;;26.40;15.40;;;;;;;5.11;74.13;95312.38;5073536;28;20472;-57
2020/12/10 09:45:18;;;;;;;10.80;7.97;;;;;;;5.21;73.00;95310.88;5074606;28;20179;-58
2020/12/10 09:47:46;;;;;;;12.90;8.90;;;;;;;5.28;72.54;95307.38;5073857;28;20177;-68
2020/12/10 09:50:35;;;;;;;9.93;7.90;;;;;;;5.30;73.17;95313.16;5074014;28;20197;-66
2020/12/10 09:58:20;;;;;;;19.60;13.50;;;;;;;5.45;72.52;95305.78;5072462;28;20464;-66
2020/12/10 10:00:49;;;;;;;29.17;17.07;;;;;;;5.61;72.71;95305.97;5073647;28;20447;-66
2020/12/10 10:03:20;;;;;;;12.87;10.33;;;;;;;5.67;71.58;95306.91;5073849;28;20420;-62
2020/12/10 10:05:46;;;;;;;12.60;9.77;;;;;;;5.50;71.28;95298.91;5073633;28;20487;-66
2020/12/10 10:08:11;;;;;;;12.40;8.80;;;;;;;5.59;70.60;95307.19;5073840;28;20504;-67
2020/12/10 10:10:37;;;;;;;12.60;9.73;;;;;;;5.52;71.92;95302.09;5073726;28;20443;-67
2020/12/10 10:13:03;;;;;;;14.47;11.60;;;;;;;5.45;72.14;95306.59;5072591;28;20182;-67
2020/12/10 10:15:28;;;;;;;66.07;32.67;;;;;;;5.53;72.04;95308.06;5072847;28;20174;-68
2020/12/10 10:17:53;;;;;;;15.27;11.00;;;;;;;5.55;74.01;95300.84;5071509;28;20209;-67
2020/12/10 10:20:20;;;;;;;13.67;10.90;;;;;;;5.64;74.77;95302.13;5073929;28;20240;-60
2020/12/10 10:22:48;;;;;;;12.80;10.23;;;;;;;5.63;74.60;95309.16;5073863;28;20177;-66
2020/12/10 10:25:13;;;;;;;14.00;10.57;;;;;;;5.75;73.74;95296.16;5073378;28;20426;-67
2020/12/10 10:27:39;;;;;;;14.80;10.17;;;;;;;5.88;74.53;95296.81;5072132;28;20809;-60
2020/12/10 10:30:06;;;;;;;13.70;10.10;;;;;;;5.77;74.89;95299.34;5073028;28;20531;-62
2020/12/10 10:32:32;;;;;;;12.30;10.00;;;;;;;5.75;76.14;95298.75;5072050;28;20620;-68
2020/12/10 10:34:57;;;;;;;12.90;10.30;;;;;;;5.70;76.85;95299.44;5073751;28;20499;-69
2020/12/10 10:37:24;;;;;;;12.60;9.80;;;;;;;5.70;76.78;95296.84;5073148;28;20197;-69
2020/12/10 10:39:50;;;;;;;13.73;10.57;;;;;;;5.72;76.22;95296.59;5073172;28;20541;-69
2020/12/10 10:42:16;;;;;;;14.17;10.80;;;;;;;5.72;76.96;95294.00;5073769;28;20515;-70
2020/12/10 10:44:42;;;;;;;14.97;11.37;;;;;;;5.78;76.22;95291.28;5071911;28;20298;-70
2020/12/10 10:47:07;;;;;;;12.87;10.60;;;;;;;5.83;76.42;95296.69;5072669;28;20451;-61
2020/12/10 10:49:32;;;;;;;16.10;12.20;;;;;;;5.92;75.98;95289.34;5073606;28;20198;-69
2020/12/10 10:51:58;;;;;;;15.63;11.67;;;;;;;5.96;75.96;95293.09;5073289;28;20567;-61
2020/12/10 10:54:23;;;;;;;20.40;12.00;;;;;;;5.98;75.96;95289.22;5073288;28;20189;-62
2020/12/10 10:56:48;;;;;;;16.43;12.17;;;;;;;6.04;75.42;95282.31;5073160;28;20629;-70
2020/12/10 10:59:14;;;;;;;16.40;11.50;;;;;;;6.08;75.05;95286.06;5073324;28;20194;-70
2020/12/10 11:01:40;;;;;;;16.10;11.50;;;;;;;6.04;75.32;95290.13;5073413;28;20178;-70
2020/12/10 11:04:06;;;;;;;15.40;11.93;;;;;;;6.03;75.22;95291.94;5072101;28;20431;-61
2020/12/10 11:06:35;;;;;;;22.53;13.13;;;;;;;6.09;75.90;95285.03;5073186;28;20166;-70
2020/12/10 11:09:00;;;;;;;21.50;15.07;;;;;;;6.05;75.27;95281.31;5072945;28;20988;-61
2020/12/10 11:11:26;;;;;;;20.23;13.00;;;;;;;5.99;75.74;95272.59;5073441;28;20400;-70
2020/12/10 11:13:53;;;;;;;18.40;12.57;;;;;;;6.03;76.56;95270.31;5072580;28;20185;-70
2020/12/10 11:16:21;;;;;;;19.97;14.73;;;;;;;6.08;74.97;95275.66;5071656;28;20468;-63
2020/12/10 11:18:46;;;;;;;21.13;13.50;;;;;;;6.05;75.51;95279.50;5075492;28;20644;-62
2020/12/10 11:21:13;;;;;;;18.67;14.43;;;;;;;6.08;74.72;95280.88;5077097;28;20499;-61
2020/12/10 11:23:39;;;;;;;22.40;13.73;;;;;;;6.12;75.54;95279.41;5077187;28;20420;-70
2020/12/10 11:26:13;;;;;;;21.77;15.43;;;;;;;6.18;75.12;95283.69;5077274;28;20909;-70
2020/12/10 11:28:38;;;;;;;22.97;16.07;;;;;;;6.22;75.34;95275.22;5075180;28;20559;-70
2020/12/10 11:31:03;;;;;;;22.17;14.03;;;;;;;6.21;74.48;95283.28;5077146;28;20509;-70
2020/12/10 11:33:29;;;;;;;21.83;15.20;;;;;;;6.19;75.11;95280.09;5077186;28;20170;-70